sensor_id;sensor_type;location;lat;lon;timestamp;P1;durP1;ratioP1;P2;durP2;ratioP2
32228;SDS011;18717;48.034;11.186;2023-02-08T00:00:21;26.90;;;13.25;;
32228;SDS011;18717;48.034;11.186;2023-02-08T00:02:50;25.50;;;12.63;;
32228;SDS011;18717;48.034;11.186;2023-02-08T00:05:18;25.60;;;13.63;;
32228;SDS011;18717;48.034;11.186;2023-02-08T00:07:49;29.90;;;12.13;;
32228;SDS011;18717;48.034;11.186;2023-02-08T00:10:17;24.77;;;13.73;;
32228;SDS011;18717;48.034;11.186;2023-02-08T00:12:44;21.50;;;10.48;;
32228;SDS011;18717;48.034;11.186;2023-02-08T00:15:14;25.75;;;13.85;;
32228;SDS011;18717;48.034;11.186;2023-02-08T00:17:41;20.70;;;10.50;;
32228;SDS011;18717;48.034;11.186;2023-02-08T00:20:09;22.83;;;12.15;;
32228;SDS011;18717;48.034;11.186;2023-02-08T00:22:38;23.48;;;13.68;;
32228;SDS011;18717;48.034;11.186;2023-02-08T00:25:06;30.77;;;13.82;;
32228;SDS011;18717;48.034;11.186;2023-02-08T00:27:34;24.33;;;12.35;;
32228;SDS011;18717;48.034;11.186;2023-02-08T00:30:02;25.67;;;12.13;;
32228;SDS011;18717;48.034;11.186;2023-02-08T00:32:32;26.77;;;12.52;;
32228;SDS011;18717;48.034;11.186;2023-02-08T00:35:00;24.23;;;12.27;;
32228;SDS011;18717;48.034;11.186;2023-02-08T00:37:28;25.35;;;11.63;;
32228;SDS011;18717;48.034;11.186;2023-02-08T00:39:56;26.45;;;12.90;;
32228;SDS011;18717;48.034;11.186;2023-02-08T00:42:25;26.75;;;12.10;;
32228;SDS011;18717;48.034;11.186;2023-02-08T00:44:52;24.05;;;12.48;;
32228;SDS011;18717;48.034;11.186;2023-02-08T00:47:20;19.70;;;11.32;;
32228;SDS011;18717;48.034;11.186;2023-02-08T00:49:49;21.42;;;12.30;;
32228;SDS011;18717;48.034;11.186;2023-02-08T00:52:17;21.23;;;11.25;;
32228;SDS011;18717;48.034;11.186;2023-02-08T00:54:45;34.00;;;13.10;;
32228;SDS011;18717;48.034;11.186;2023-02-08T00:57:13;27.38;;;12.05;;
32228;SDS011;18717;48.034;11.186;2023-02-08T00:59:41;22.98;;;12.73;;
32228;SDS011;18717;48.034;11.186;2023-02-08T01:02:09;20.45;;;12.88;;
32228;SDS011;18717;48.034;11.186;2023-02-08T01:04:37;22.58;;;11.43;;
32228;SDS011;18717;48.034;11.186;2023-02-08T01:07:06;26.58;;;14.25;;
32228;SDS011;18717;48.034;11.186;2023-02-08T01:09:37;21.98;;;11.23;;
32228;SDS011;18717;48.034;11.186;2023-02-08T01:12:05;24.52;;;12.07;;
32228;SDS011;18717;48.034;11.186;2023-02-08T01:14:33;24.92;;;11.30;;
32228;SDS011;18717;48.034;11.186;2023-02-08T01:17:00;25.48;;;13.02;;
32228;SDS011;18717;48.034;11.186;2023-02-08T01:19:28;24.92;;;12.63;;
32228;SDS011;18717;48.034;11.186;2023-02-08T01:21:56;25.00;;;12.80;;
32228;SDS011;18717;48.034;11.186;2023-02-08T01:24:25;22.20;;;12.25;;
32228;SDS011;18717;48.034;11.186;2023-02-08T01:26:53;27.90;;;13.05;;
32228;SDS011;18717;48.034;11.186;2023-02-08T01:29:21;24.60;;;12.70;;
32228;SDS011;18717;48.034;11.186;2023-02-08T01:31:49;29.25;;;12.90;;
32228;SDS011;18717;48.034;11.186;2023-02-08T01:34:17;27.58;;;12.80;;
32228;SDS011;18717;48.034;11.186;2023-02-08T01:36:47;25.00;;;12.25;;
32228;SDS011;18717;48.034;11.186;2023-02-08T01:39:15;21.63;;;11.23;;
32228;SDS011;18717;48.034;11.186;2023-02-08T01:41:44;23.35;;;12.10;;
32228;SDS011;18717;48.034;11.186;2023-02-08T01:47:17;25.20;;;12.80;;
32228;SDS011;18717;48.034;11.186;2023-02-08T01:49:45;26.70;;;12.52;;
32228;SDS011;18717;48.034;11.186;2023-02-08T01:52:14;27.63;;;13.57;;
32228;SDS011;18717;48.034;11.186;2023-02-08T01:54:45;24.00;;;12.85;;
32228;SDS011;18717;48.034;11.186;2023-02-08T01:57:17;24.55;;;11.70;;
32228;SDS011;18717;48.034;11.186;2023-02-08T01:59:46;28.23;;;13.55;;
32228;SDS011;18717;48.034;11.186;2023-02-08T02:02:17;29.67;;;12.60;;
32228;SDS011;18717;48.034;11.186;2023-02-08T02:04:46;21.42;;;12.18;;
32228;SDS011;18717;48.034;11.186;2023-02-08T02:07:15;24.13;;;13.40;;
32228;SDS011;18717;48.034;11.186;2023-02-08T02:09:44;23.60;;;12.32;;
32228;SDS011;18717;48.034;11.186;2023-02-08T02:12:13;29.33;;;13.15;;
32228;SDS011;18717;48.034;11.186;2023-02-08T02:14:42;22.60;;;12.95;;
32228;SDS011;18717;48.034;11.186;2023-02-08T02:17:10;23.05;;;12.50;;
32228;SDS011;18717;48.034;11.186;2023-02-08T02:19:39;24.38;;;13.77;;
32228;SDS011;18717;48.034;11.186;2023-02-08T02:22:19;29.58;;;12.90;;
32228;SDS011;18717;48.034;11.186;2023-02-08T02:25:07;23.20;;;12.68;;
32228;SDS011;18717;48.034;11.186;2023-02-08T02:27:57;22.33;;;11.77;;
32228;SDS011;18717;48.034;11.186;2023-02-08T02:30:46;23.70;;;12.65;;
32228;SDS011;18717;48.034;11.186;2023-02-08T02:33:33;28.45;;;11.82;;
32228;SDS011;18717;48.034;11.186;2023-02-08T02:36:08;25.73;;;11.07;;
32228;SDS011;18717;48.034;11.186;2023-02-08T02:38:45;35.00;;;13.95;;
32228;SDS011;18717;48.034;11.186;2023-02-08T02:41:19;30.50;;;14.40;;
32228;SDS011;18717;48.034;11.186;2023-02-08T02:44:09;26.38;;;13.52;;
32228;SDS011;18717;48.034;11.186;2023-02-08T02:46:42;31.92;;;14.32;;
32228;SDS011;18717;48.034;11.186;2023-02-08T02:49:15;30.13;;;13.50;;
32228;SDS011;18717;48.034;11.186;2023-02-08T02:51:45;25.38;;;12.30;;
32228;SDS011;18717;48.034;11.186;2023-02-08T02:54:16;25.00;;;13.00;;
32228;SDS011;18717;48.034;11.186;2023-02-08T02:56:46;23.30;;;12.45;;
32228;SDS011;18717;48.034;11.186;2023-02-08T02:59:15;33.30;;;13.68;;
32228;SDS011;18717;48.034;11.186;2023-02-08T03:01:43;24.45;;;12.80;;
32228;SDS011;18717;48.034;11.186;2023-02-08T03:04:13;27.33;;;13.98;;
32228;SDS011;18717;48.034;11.186;2023-02-08T03:06:48;27.70;;;12.55;;
32228;SDS011;18717;48.034;11.186;2023-02-08T03:09:40;24.85;;;13.20;;
32228;SDS011;18717;48.034;11.186;2023-02-08T03:12:19;28.75;;;15.82;;
32228;SDS011;18717;48.034;11.186;2023-02-08T03:14:55;29.02;;;14.20;;
32228;SDS011;18717;48.034;11.186;2023-02-08T03:17:29;27.38;;;12.65;;
32228;SDS011;18717;48.034;11.186;2023-02-08T03:20:04;31.40;;;13.38;;
32228;SDS011;18717;48.034;11.186;2023-02-08T03:22:36;30.33;;;14.98;;
32228;SDS011;18717;48.034;11.186;2023-02-08T03:25:10;31.52;;;14.48;;
32228;SDS011;18717;48.034;11.186;2023-02-08T03:27:46;27.15;;;13.38;;
32228;SDS011;18717;48.034;11.186;2023-02-08T03:30:19;32.15;;;12.98;;
32228;SDS011;18717;48.034;11.186;2023-02-08T03:32:49;39.85;;;16.05;;
32228;SDS011;18717;48.034;11.186;2023-02-08T03:35:20;26.88;;;11.88;;
32228;SDS011;18717;48.034;11.186;2023-02-08T03:37:52;33.63;;;14.65;;
32228;SDS011;18717;48.034;11.186;2023-02-08T03:40:21;28.83;;;13.82;;
32228;SDS011;18717;48.034;11.186;2023-02-08T03:42:50;37.92;;;14.68;;
32228;SDS011;18717;48.034;11.186;2023-02-08T03:45:20;31.27;;;14.25;;
32228;SDS011;18717;48.034;11.186;2023-02-08T03:47:50;30.63;;;15.05;;
32228;SDS011;18717;48.034;11.186;2023-02-08T03:50:21;35.90;;;15.75;;
32228;SDS011;18717;48.034;11.186;2023-02-08T03:52:49;30.42;;;15.00;;
32228;SDS011;18717;48.034;11.186;2023-02-08T03:55:19;33.67;;;15.13;;
32228;SDS011;18717;48.034;11.186;2023-02-08T03:57:48;32.53;;;13.55;;
32228;SDS011;18717;48.034;11.186;2023-02-08T04:00:19;30.02;;;15.13;;
32228;SDS011;18717;48.034;11.186;2023-02-08T04:02:50;33.00;;;14.93;;
32228;SDS011;18717;48.034;11.186;2023-02-08T04:05:23;33.17;;;15.50;;
32228;SDS011;18717;48.034;11.186;2023-02-08T04:07:51;32.63;;;15.90;;
32228;SDS011;18717;48.034;11.186;2023-02-08T04:10:19;32.83;;;15.15;;
32228;SDS011;18717;48.034;11.186;2023-02-08T04:12:47;39.78;;;14.65;;
32228;SDS011;18717;48.034;11.186;2023-02-08T04:15:15;34.58;;;14.75;;
32228;SDS011;18717;48.034;11.186;2023-02-08T04:17:43;27.67;;;12.82;;
32228;SDS011;18717;48.034;11.186;2023-02-08T04:20:11;29.10;;;13.25;;
32228;SDS011;18717;48.034;11.186;2023-02-08T04:22:40;28.05;;;12.88;;
32228;SDS011;18717;48.034;11.186;2023-02-08T04:25:07;30.80;;;15.73;;
32228;SDS011;18717;48.034;11.186;2023-02-08T04:27:35;27.67;;;14.05;;
32228;SDS011;18717;48.034;11.186;2023-02-08T04:30:03;33.83;;;15.05;;
32228;SDS011;18717;48.034;11.186;2023-02-08T04:32:31;27.92;;;12.90;;
32228;SDS011;18717;48.034;11.186;2023-02-08T04:34:59;35.83;;;15.85;;
32228;SDS011;18717;48.034;11.186;2023-02-08T04:37:27;29.60;;;15.38;;
32228;SDS011;18717;48.034;11.186;2023-02-08T04:39:56;34.00;;;15.30;;
32228;SDS011;18717;48.034;11.186;2023-02-08T04:42:23;29.92;;;12.70;;
32228;SDS011;18717;48.034;11.186;2023-02-08T04:44:51;35.55;;;15.55;;
32228;SDS011;18717;48.034;11.186;2023-02-08T04:47:19;31.50;;;13.60;;
32228;SDS011;18717;48.034;11.186;2023-02-08T04:49:47;32.42;;;13.93;;
32228;SDS011;18717;48.034;11.186;2023-02-08T04:52:14;24.98;;;12.50;;
32228;SDS011;18717;48.034;11.186;2023-02-08T04:54:42;31.08;;;14.73;;
32228;SDS011;18717;48.034;11.186;2023-02-08T04:57:12;28.23;;;14.68;;
32228;SDS011;18717;48.034;11.186;2023-02-08T04:59:40;29.92;;;13.68;;
32228;SDS011;18717;48.034;11.186;2023-02-08T05:02:08;36.88;;;14.20;;
32228;SDS011;18717;48.034;11.186;2023-02-08T05:04:36;31.40;;;14.15;;
32228;SDS011;18717;48.034;11.186;2023-02-08T05:07:03;38.08;;;17.58;;
32228;SDS011;18717;48.034;11.186;2023-02-08T05:09:31;31.48;;;14.23;;
32228;SDS011;18717;48.034;11.186;2023-02-08T05:11:59;36.08;;;15.00;;
32228;SDS011;18717;48.034;11.186;2023-02-08T05:14:28;31.63;;;15.93;;
32228;SDS011;18717;48.034;11.186;2023-02-08T05:16:55;33.63;;;15.13;;
32228;SDS011;18717;48.034;11.186;2023-02-08T05:19:23;20.00;;;11.88;;
32228;SDS011;18717;48.034;11.186;2023-02-08T05:21:51;33.30;;;15.85;;
32228;SDS011;18717;48.034;11.186;2023-02-08T05:24:18;33.58;;;14.55;;
32228;SDS011;18717;48.034;11.186;2023-02-08T05:26:46;34.33;;;15.57;;
32228;SDS011;18717;48.034;11.186;2023-02-08T05:29:14;33.65;;;15.57;;
32228;SDS011;18717;48.034;11.186;2023-02-08T05:31:43;32.38;;;15.70;;
32228;SDS011;18717;48.034;11.186;2023-02-08T05:34:11;34.55;;;15.32;;
32228;SDS011;18717;48.034;11.186;2023-02-08T05:36:38;29.33;;;14.45;;
32228;SDS011;18717;48.034;11.186;2023-02-08T05:39:06;31.63;;;15.02;;
32228;SDS011;18717;48.034;11.186;2023-02-08T05:41:33;31.15;;;14.82;;
32228;SDS011;18717;48.034;11.186;2023-02-08T05:44:01;34.10;;;16.42;;
32228;SDS011;18717;48.034;11.186;2023-02-08T05:46:29;39.58;;;16.33;;
32228;SDS011;18717;48.034;11.186;2023-02-08T05:48:58;35.80;;;17.92;;
32228;SDS011;18717;48.034;11.186;2023-02-08T05:51:26;40.33;;;15.65;;
32228;SDS011;18717;48.034;11.186;2023-02-08T05:56:55;37.83;;;16.90;;
32228;SDS011;18717;48.034;11.186;2023-02-08T05:59:23;38.28;;;16.63;;
32228;SDS011;18717;48.034;11.186;2023-02-08T06:01:51;40.17;;;17.52;;
32228;SDS011;18717;48.034;11.186;2023-02-08T06:04:20;43.58;;;18.25;;
32228;SDS011;18717;48.034;11.186;2023-02-08T06:06:47;30.25;;;16.05;;
32228;SDS011;18717;48.034;11.186;2023-02-08T06:09:15;37.20;;;17.15;;
32228;SDS011;18717;48.034;11.186;2023-02-08T06:11:43;32.25;;;14.32;;
32228;SDS011;18717;48.034;11.186;2023-02-08T06:14:11;39.00;;;16.98;;
32228;SDS011;18717;48.034;11.186;2023-02-08T06:16:38;35.72;;;15.63;;
32228;SDS011;18717;48.034;11.186;2023-02-08T06:19:06;26.50;;;14.93;;
32228;SDS011;18717;48.034;11.186;2023-02-08T06:21:35;34.75;;;16.17;;
32228;SDS011;18717;48.034;11.186;2023-02-08T06:24:03;33.47;;;16.05;;
32228;SDS011;18717;48.034;11.186;2023-02-08T06:26:32;34.33;;;15.73;;
32228;SDS011;18717;48.034;11.186;2023-02-08T06:28:59;39.42;;;16.27;;
32228;SDS011;18717;48.034;11.186;2023-02-08T06:31:27;33.25;;;15.85;;
32228;SDS011;18717;48.034;11.186;2023-02-08T06:33:55;37.33;;;16.65;;
32228;SDS011;18717;48.034;11.186;2023-02-08T06:36:22;37.47;;;17.33;;
32228;SDS011;18717;48.034;11.186;2023-02-08T06:38:51;39.70;;;16.73;;
32228;SDS011;18717;48.034;11.186;2023-02-08T06:41:19;28.48;;;13.77;;
32228;SDS011;18717;48.034;11.186;2023-02-08T06:43:46;34.55;;;16.67;;
32228;SDS011;18717;48.034;11.186;2023-02-08T06:46:14;36.10;;;14.35;;
32228;SDS011;18717;48.034;11.186;2023-02-08T06:48:42;38.28;;;17.85;;
32228;SDS011;18717;48.034;11.186;2023-02-08T06:51:09;28.40;;;12.27;;
32228;SDS011;18717;48.034;11.186;2023-02-08T06:53:37;34.25;;;16.33;;
32228;SDS011;18717;48.034;11.186;2023-02-08T06:56:06;35.63;;;17.33;;
32228;SDS011;18717;48.034;11.186;2023-02-08T06:58:34;36.80;;;15.20;;
32228;SDS011;18717;48.034;11.186;2023-02-08T07:01:03;36.88;;;17.33;;
32228;SDS011;18717;48.034;11.186;2023-02-08T07:03:31;37.03;;;17.60;;
32228;SDS011;18717;48.034;11.186;2023-02-08T07:05:58;41.00;;;19.30;;
32228;SDS011;18717;48.034;11.186;2023-02-08T07:08:31;35.65;;;16.38;;
32228;SDS011;18717;48.034;11.186;2023-02-08T07:10:59;32.17;;;17.00;;
32228;SDS011;18717;48.034;11.186;2023-02-08T07:13:28;32.65;;;16.00;;
32228;SDS011;18717;48.034;11.186;2023-02-08T07:15:55;36.00;;;17.17;;
32228;SDS011;18717;48.034;11.186;2023-02-08T07:18:23;30.30;;;16.45;;
32228;SDS011;18717;48.034;11.186;2023-02-08T07:20:50;40.55;;;16.73;;
32228;SDS011;18717;48.034;11.186;2023-02-08T07:23:18;40.03;;;15.13;;
32228;SDS011;18717;48.034;11.186;2023-02-08T07:25:54;42.08;;;19.75;;
32228;SDS011;18717;48.034;11.186;2023-02-08T07:28:23;48.08;;;16.95;;
32228;SDS011;18717;48.034;11.186;2023-02-08T07:30:53;35.80;;;16.48;;
32228;SDS011;18717;48.034;11.186;2023-02-08T07:33:21;41.47;;;17.73;;
32228;SDS011;18717;48.034;11.186;2023-02-08T07:35:49;31.67;;;15.55;;
32228;SDS011;18717;48.034;11.186;2023-02-08T07:38:17;43.22;;;19.83;;
32228;SDS011;18717;48.034;11.186;2023-02-08T07:40:46;33.47;;;16.27;;
32228;SDS011;18717;48.034;11.186;2023-02-08T07:43:13;39.95;;;18.63;;
32228;SDS011;18717;48.034;11.186;2023-02-08T07:45:41;38.70;;;14.65;;
32228;SDS011;18717;48.034;11.186;2023-02-08T07:48:10;35.58;;;16.05;;
32228;SDS011;18717;48.034;11.186;2023-02-08T07:50:38;39.55;;;19.90;;
32228;SDS011;18717;48.034;11.186;2023-02-08T07:53:06;37.30;;;16.98;;
32228;SDS011;18717;48.034;11.186;2023-02-08T07:55:33;40.60;;;16.88;;
32228;SDS011;18717;48.034;11.186;2023-02-08T07:58:01;43.28;;;19.02;;
32228;SDS011;18717;48.034;11.186;2023-02-08T08:00:29;30.80;;;13.50;;
32228;SDS011;18717;48.034;11.186;2023-02-08T08:02:56;39.60;;;18.02;;
32228;SDS011;18717;48.034;11.186;2023-02-08T08:05:25;33.03;;;16.38;;
32228;SDS011;18717;48.034;11.186;2023-02-08T08:07:53;36.72;;;17.48;;
32228;SDS011;18717;48.034;11.186;2023-02-08T08:10:21;47.47;;;20.50;;
32228;SDS011;18717;48.034;11.186;2023-02-08T08:12:48;34.78;;;16.85;;
32228;SDS011;18717;48.034;11.186;2023-02-08T08:15:16;36.65;;;17.65;;
32228;SDS011;18717;48.034;11.186;2023-02-08T08:17:44;40.78;;;18.45;;
32228;SDS011;18717;48.034;11.186;2023-02-08T08:20:11;45.30;;;18.58;;
32228;SDS011;18717;48.034;11.186;2023-02-08T08:22:40;39.75;;;20.13;;
32228;SDS011;18717;48.034;11.186;2023-02-08T08:25:08;39.60;;;20.60;;
32228;SDS011;18717;48.034;11.186;2023-02-08T08:27:36;38.53;;;19.80;;
32228;SDS011;18717;48.034;11.186;2023-02-08T08:30:05;32.88;;;17.73;;
32228;SDS011;18717;48.034;11.186;2023-02-08T08:32:33;35.65;;;16.65;;
32228;SDS011;18717;48.034;11.186;2023-02-08T08:35:00;36.42;;;19.25;;
32228;SDS011;18717;48.034;11.186;2023-02-08T08:37:28;45.78;;;18.48;;
32228;SDS011;18717;48.034;11.186;2023-02-08T08:39:57;45.40;;;20.80;;
32228;SDS011;18717;48.034;11.186;2023-02-08T08:42:25;40.75;;;19.88;;
32228;SDS011;18717;48.034;11.186;2023-02-08T08:44:53;34.38;;;18.50;;
32228;SDS011;18717;48.034;11.186;2023-02-08T08:47:20;35.33;;;18.38;;
32228;SDS011;18717;48.034;11.186;2023-02-08T08:49:48;36.67;;;16.63;;
32228;SDS011;18717;48.034;11.186;2023-02-08T08:52:16;43.15;;;18.85;;
32228;SDS011;18717;48.034;11.186;2023-02-08T08:54:43;32.80;;;18.67;;
32228;SDS011;18717;48.034;11.186;2023-02-08T09:00:05;35.80;;;18.27;;
32228;SDS011;18717;48.034;11.186;2023-02-08T09:02:33;31.23;;;16.83;;
32228;SDS011;18717;48.034;11.186;2023-02-08T09:05:01;35.03;;;18.35;;
32228;SDS011;18717;48.034;11.186;2023-02-08T09:07:30;34.85;;;17.00;;
32228;SDS011;18717;48.034;11.186;2023-02-08T09:09:59;30.60;;;14.63;;
32228;SDS011;18717;48.034;11.186;2023-02-08T09:12:27;34.75;;;18.90;;
32228;SDS011;18717;48.034;11.186;2023-02-08T09:14:56;28.60;;;16.15;;
32228;SDS011;18717;48.034;11.186;2023-02-08T09:17:23;27.00;;;15.30;;
32228;SDS011;18717;48.034;11.186;2023-02-08T09:19:51;35.30;;;17.33;;
32228;SDS011;18717;48.034;11.186;2023-02-08T09:22:19;29.58;;;18.65;;
32228;SDS011;18717;48.034;11.186;2023-02-08T09:24:47;37.05;;;19.83;;
32228;SDS011;18717;48.034;11.186;2023-02-08T09:27:14;32.72;;;17.50;;
32228;SDS011;18717;48.034;11.186;2023-02-08T09:29:44;37.95;;;17.65;;
32228;SDS011;18717;48.034;11.186;2023-02-08T09:32:13;31.48;;;17.50;;
32228;SDS011;18717;48.034;11.186;2023-02-08T09:34:41;36.90;;;17.45;;
32228;SDS011;18717;48.034;11.186;2023-02-08T09:37:08;32.20;;;18.35;;
32228;SDS011;18717;48.034;11.186;2023-02-08T09:39:36;34.30;;;17.63;;
32228;SDS011;18717;48.034;11.186;2023-02-08T09:42:07;28.83;;;15.80;;
32228;SDS011;18717;48.034;11.186;2023-02-08T09:44:44;30.98;;;16.83;;
32228;SDS011;18717;48.034;11.186;2023-02-08T09:47:21;35.30;;;16.73;;
32228;SDS011;18717;48.034;11.186;2023-02-08T09:49:53;31.63;;;16.60;;
32228;SDS011;18717;48.034;11.186;2023-02-08T09:54:53;35.17;;;16.90;;
32228;SDS011;18717;48.034;11.186;2023-02-08T09:57:25;22.85;;;13.95;;
32228;SDS011;18717;48.034;11.186;2023-02-08T09:59:56;34.10;;;17.80;;
32228;SDS011;18717;48.034;11.186;2023-02-08T10:02:27;33.00;;;15.48;;
32228;SDS011;18717;48.034;11.186;2023-02-08T10:04:56;23.33;;;14.63;;
32228;SDS011;18717;48.034;11.186;2023-02-08T10:07:26;30.27;;;16.08;;
32228;SDS011;18717;48.034;11.186;2023-02-08T10:09:55;29.35;;;16.45;;
32228;SDS011;18717;48.034;11.186;2023-02-08T10:12:28;24.95;;;14.65;;
32228;SDS011;18717;48.034;11.186;2023-02-08T10:15:04;26.65;;;15.68;;
32228;SDS011;18717;48.034;11.186;2023-02-08T10:17:57;27.45;;;15.15;;
32228;SDS011;18717;48.034;11.186;2023-02-08T10:20:33;25.85;;;14.70;;
32228;SDS011;18717;48.034;11.186;2023-02-08T10:23:14;30.85;;;15.05;;
32228;SDS011;18717;48.034;11.186;2023-02-08T10:25:54;22.88;;;14.43;;
32228;SDS011;18717;48.034;11.186;2023-02-08T10:28:33;26.52;;;14.55;;
32228;SDS011;18717;48.034;11.186;2023-02-08T10:31:10;27.63;;;15.70;;
32228;SDS011;18717;48.034;11.186;2023-02-08T10:33:46;27.17;;;15.30;;
32228;SDS011;18717;48.034;11.186;2023-02-08T10:36:20;22.05;;;13.95;;
32228;SDS011;18717;48.034;11.186;2023-02-08T10:38:48;26.48;;;13.90;;
32228;SDS011;18717;48.034;11.186;2023-02-08T10:41:19;21.40;;;13.65;;
32228;SDS011;18717;48.034;11.186;2023-02-08T10:43:50;24.42;;;14.73;;
32228;SDS011;18717;48.034;11.186;2023-02-08T10:46:19;25.35;;;14.50;;
32228;SDS011;18717;48.034;11.186;2023-02-08T10:48:56;25.83;;;14.55;;
32228;SDS011;18717;48.034;11.186;2023-02-08T10:51:29;21.30;;;13.68;;
32228;SDS011;18717;48.034;11.186;2023-02-08T10:53:57;32.00;;;16.63;;
32228;SDS011;18717;48.034;11.186;2023-02-08T10:59:15;29.33;;;14.60;;
32228;SDS011;18717;48.034;11.186;2023-02-08T11:01:45;27.65;;;15.50;;
32228;SDS011;18717;48.034;11.186;2023-02-08T11:04:15;25.77;;;15.45;;
32228;SDS011;18717;48.034;11.186;2023-02-08T11:06:43;27.58;;;14.55;;
32228;SDS011;18717;48.034;11.186;2023-02-08T11:09:22;28.77;;;15.45;;
32228;SDS011;18717;48.034;11.186;2023-02-08T11:11:51;28.73;;;16.58;;
32228;SDS011;18717;48.034;11.186;2023-02-08T11:14:22;23.77;;;15.15;;
32228;SDS011;18717;48.034;11.186;2023-02-08T11:17:10;26.15;;;15.30;;
32228;SDS011;18717;48.034;11.186;2023-02-08T11:19:52;25.13;;;15.63;;
32228;SDS011;18717;48.034;11.186;2023-02-08T11:22:21;23.30;;;15.20;;
32228;SDS011;18717;48.034;11.186;2023-02-08T11:24:53;32.15;;;17.95;;
32228;SDS011;18717;48.034;11.186;2023-02-08T11:27:30;29.83;;;16.38;;
32228;SDS011;18717;48.034;11.186;2023-02-08T11:32:46;27.33;;;14.98;;
32228;SDS011;18717;48.034;11.186;2023-02-08T11:35:20;29.45;;;16.52;;
32228;SDS011;18717;48.034;11.186;2023-02-08T11:37:49;29.00;;;14.48;;
32228;SDS011;18717;48.034;11.186;2023-02-08T11:40:19;24.33;;;15.30;;
32228;SDS011;18717;48.034;11.186;2023-02-08T11:42:48;25.52;;;15.73;;
32228;SDS011;18717;48.034;11.186;2023-02-08T11:45:17;24.55;;;13.50;;
32228;SDS011;18717;48.034;11.186;2023-02-08T11:47:47;18.77;;;13.20;;
32228;SDS011;18717;48.034;11.186;2023-02-08T11:50:22;27.98;;;15.43;;
32228;SDS011;18717;48.034;11.186;2023-02-08T11:52:53;46.75;;;13.45;;
32228;SDS011;18717;48.034;11.186;2023-02-08T11:55:24;22.92;;;14.77;;
32228;SDS011;18717;48.034;11.186;2023-02-08T11:57:54;21.83;;;14.15;;
32228;SDS011;18717;48.034;11.186;2023-02-08T12:00:24;27.63;;;16.65;;
32228;SDS011;18717;48.034;11.186;2023-02-08T12:02:54;26.08;;;16.00;;
32228;SDS011;18717;48.034;11.186;2023-02-08T12:05:28;28.35;;;18.42;;
32228;SDS011;18717;48.034;11.186;2023-02-08T12:08:03;27.48;;;15.70;;
32228;SDS011;18717;48.034;11.186;2023-02-08T12:10:45;29.63;;;16.58;;
32228;SDS011;18717;48.034;11.186;2023-02-08T12:13:33;27.35;;;17.17;;
32228;SDS011;18717;48.034;11.186;2023-02-08T12:18:47;22.38;;;14.73;;
32228;SDS011;18717;48.034;11.186;2023-02-08T12:21:23;27.38;;;16.48;;
32228;SDS011;18717;48.034;11.186;2023-02-08T12:23:52;24.65;;;15.18;;
32228;SDS011;18717;48.034;11.186;2023-02-08T12:26:24;24.40;;;15.73;;
32228;SDS011;18717;48.034;11.186;2023-02-08T12:29:05;25.45;;;16.75;;
32228;SDS011;18717;48.034;11.186;2023-02-08T12:31:43;26.88;;;17.23;;
32228;SDS011;18717;48.034;11.186;2023-02-08T12:34:18;24.00;;;16.27;;
32228;SDS011;18717;48.034;11.186;2023-02-08T12:37:02;25.52;;;16.77;;
32228;SDS011;18717;48.034;11.186;2023-02-08T12:39:56;27.88;;;16.00;;
32228;SDS011;18717;48.034;11.186;2023-02-08T12:42:47;24.73;;;14.48;;
32228;SDS011;18717;48.034;11.186;2023-02-08T12:45:37;28.58;;;17.33;;
32228;SDS011;18717;48.034;11.186;2023-02-08T12:48:14;26.42;;;16.13;;
32228;SDS011;18717;48.034;11.186;2023-02-08T12:50:50;25.08;;;16.10;;
32228;SDS011;18717;48.034;11.186;2023-02-08T12:53:22;27.63;;;16.25;;
32228;SDS011;18717;48.034;11.186;2023-02-08T12:55:56;22.88;;;16.52;;
32228;SDS011;18717;48.034;11.186;2023-02-08T12:58:26;28.35;;;16.35;;
32228;SDS011;18717;48.034;11.186;2023-02-08T13:00:55;25.75;;;15.57;;
32228;SDS011;18717;48.034;11.186;2023-02-08T13:03:30;22.45;;;15.88;;
32228;SDS011;18717;48.034;11.186;2023-02-08T13:06:02;25.98;;;17.38;;
32228;SDS011;18717;48.034;11.186;2023-02-08T13:08:35;24.02;;;14.13;;
32228;SDS011;18717;48.034;11.186;2023-02-08T13:11:09;27.55;;;15.98;;
32228;SDS011;18717;48.034;11.186;2023-02-08T13:13:47;19.98;;;13.68;;
32228;SDS011;18717;48.034;11.186;2023-02-08T13:16:20;22.15;;;15.38;;
32228;SDS011;18717;48.034;11.186;2023-02-08T13:18:52;23.80;;;16.75;;
32228;SDS011;18717;48.034;11.186;2023-02-08T13:21:21;20.67;;;14.85;;
32228;SDS011;18717;48.034;11.186;2023-02-08T13:23:53;24.50;;;14.80;;
32228;SDS011;18717;48.034;11.186;2023-02-08T13:26:21;27.92;;;16.20;;
32228;SDS011;18717;48.034;11.186;2023-02-08T13:28:52;23.92;;;15.30;;
32228;SDS011;18717;48.034;11.186;2023-02-08T13:31:22;25.55;;;15.48;;
32228;SDS011;18717;48.034;11.186;2023-02-08T13:33:51;22.02;;;14.00;;
32228;SDS011;18717;48.034;11.186;2023-02-08T13:36:28;27.42;;;18.83;;
32228;SDS011;18717;48.034;11.186;2023-02-08T13:38:58;23.30;;;14.63;;
32228;SDS011;18717;48.034;11.186;2023-02-08T13:41:27;26.17;;;15.50;;
32228;SDS011;18717;48.034;11.186;2023-02-08T13:43:56;25.70;;;16.63;;
32228;SDS011;18717;48.034;11.186;2023-02-08T13:46:25;26.27;;;18.45;;
32228;SDS011;18717;48.034;11.186;2023-02-08T13:48:56;26.52;;;17.67;;
32228;SDS011;18717;48.034;11.186;2023-02-08T13:54:28;31.60;;;19.23;;
32228;SDS011;18717;48.034;11.186;2023-02-08T13:56:56;34.25;;;20.92;;
32228;SDS011;18717;48.034;11.186;2023-02-08T13:59:26;34.00;;;21.35;;
32228;SDS011;18717;48.034;11.186;2023-02-08T14:02:19;39.53;;;21.52;;
32228;SDS011;18717;48.034;11.186;2023-02-08T14:07:55;46.25;;;22.13;;
32228;SDS011;18717;48.034;11.186;2023-02-08T14:10:26;35.08;;;20.58;;
32228;SDS011;18717;48.034;11.186;2023-02-08T14:13:02;39.55;;;21.92;;
32228;SDS011;18717;48.034;11.186;2023-02-08T14:15:35;38.67;;;22.98;;
32228;SDS011;18717;48.034;11.186;2023-02-08T14:18:03;33.30;;;20.73;;
32228;SDS011;18717;48.034;11.186;2023-02-08T14:20:42;38.83;;;22.73;;
32228;SDS011;18717;48.034;11.186;2023-02-08T14:23:24;48.10;;;23.08;;
32228;SDS011;18717;48.034;11.186;2023-02-08T14:25:57;40.92;;;22.30;;
32228;SDS011;18717;48.034;11.186;2023-02-08T14:28:28;40.40;;;22.38;;
32228;SDS011;18717;48.034;11.186;2023-02-08T14:30:57;38.08;;;21.85;;
32228;SDS011;18717;48.034;11.186;2023-02-08T14:33:29;38.83;;;20.95;;
32228;SDS011;18717;48.034;11.186;2023-02-08T14:35:59;31.35;;;19.05;;
32228;SDS011;18717;48.034;11.186;2023-02-08T14:38:32;41.42;;;20.80;;
32228;SDS011;18717;48.034;11.186;2023-02-08T14:50:40;36.00;;;20.70;;
32228;SDS011;18717;48.034;11.186;2023-02-08T14:53:17;38.72;;;21.75;;
32228;SDS011;18717;48.034;11.186;2023-02-08T14:55:48;42.50;;;21.13;;
32228;SDS011;18717;48.034;11.186;2023-02-08T14:58:23;37.72;;;21.17;;
32228;SDS011;18717;48.034;11.186;2023-02-08T15:00:53;32.70;;;18.70;;
32228;SDS011;18717;48.034;11.186;2023-02-08T15:03:22;32.50;;;20.42;;